Time;durP1;ratioP1;P1;durP2;ratioP2;P2;SDS_P1;SDS_P2;PMS_P1;PMS_P2;Temp;Humidity;BMP_temperature;BMP_pressure;BME280_temperature;BME280_humidity;BME280_pressure;Samples;Min_cycle;Max_cycle;Signal;HPM_P1;HPM_P2
2023/06/26 00:02:05;;;;;;;7.00;6.30;;;;;;;;;;4953935;28;20420;-80
2023/06/26 00:04:31;;;;;;;7.00;6.03;;;;;;;;;;4953465;28;21015;-80
2023/06/26 00:06:57;;;;;;;6.13;5.53;;;;;;;;;;4954142;29;20904;-79
2023/06/26 00:09:23;;;;;;;7.77;6.10;;;;;;;;;;4937723;29;20408;-80
2023/06/26 00:11:49;;;;;;;7.23;6.53;;;;;;;;;;4954710;29;20401;-80
2023/06/26 00:14:15;;;;;;;6.50;5.90;;;;;;;;;;4952220;28;20885;-80
2023/06/26 00:16:42;;;;;;;10.03;5.90;;;;;;;;;;4938068;29;20413;-80
2023/06/26 00:19:08;;;;;;;7.20;6.00;;;;;;;;;;4938022;29;20408;-80
2023/06/26 00:21:34;;;;;;;8.93;6.70;;;;;;;;;;4952552;29;20517;-80
2023/06/26 00:24:00;;;;;;;7.30;5.97;;;;;;;;;;4953430;29;20565;-80
2023/06/26 00:26:26;;;;;;;8.13;6.20;;;;;;;;;;4953808;28;20417;-80
2023/06/26 00:28:52;;;;;;;7.00;6.30;;;;;;;;;;4954101;29;20388;-81
2023/06/26 00:31:18;;;;;;;9.73;6.17;;;;;;;;;;4921814;29;20448;-81
2023/06/26 00:33:44;;;;;;;6.17;5.57;;;;;;;;;;4953396;28;20842;-81
2023/06/26 00:36:10;;;;;;;6.30;5.70;;;;;;;;;;4937078;29;20479;-80
2023/06/26 00:38:36;;;;;;;7.20;5.80;;;;;;;;;;4937412;29;20408;-81
2023/06/26 00:41:02;;;;;;;9.47;6.30;;;;;;;;;;4937709;29;20405;-80
2023/06/26 00:43:28;;;;;;;6.13;5.53;;;;;;;;;;4936630;29;20468;-81
2023/06/26 00:45:54;;;;;;;8.03;6.20;;;;;;;;;;4937568;29;20419;-81
2023/06/26 00:48:20;;;;;;;7.07;6.40;;;;;;;;;;4953241;29;20429;-80
2023/06/26 00:50:46;;;;;;;6.13;5.60;;;;;;;;;;4920586;29;20924;-80
2023/06/26 00:53:12;;;;;;;7.87;7.10;;;;;;;;;;4954367;28;20468;-79
2023/06/26 00:55:38;;;;;;;7.13;6.30;;;;;;;;;;4953256;29;20459;-80
2023/06/26 00:58:04;;;;;;;6.63;5.93;;;;;;;;;;4952751;28;20427;-79
2023/06/26 01:00:30;;;;;;;6.20;5.27;;;;;;;;;;4940573;29;20419;-81
2023/06/26 01:02:59;;;;;;;6.50;5.90;;;;;;;;;;4925486;29;20444;-80
2023/06/26 01:05:25;;;;;;;7.47;6.73;;;;;;;;;;4956025;29;21000;-80
2023/06/26 01:07:51;;;;;;;7.80;5.93;;;;;;;;;;4956588;28;20412;-80
2023/06/26 01:10:17;;;;;;;6.87;6.17;;;;;;;;;;4956238;29;20424;-81
2023/06/26 01:12:43;;;;;;;7.23;6.17;;;;;;;;;;4957112;29;20504;-80
2023/06/26 01:15:09;;;;;;;6.83;5.80;;;;;;;;;;4939998;29;20412;-80
2023/06/26 01:17:37;;;;;;;6.20;5.60;;;;;;;;;;4956292;29;20444;-80
2023/06/26 01:20:09;;;;;;;7.07;5.70;;;;;;;;;;4956571;28;20416;-80
2023/06/26 01:22:53;;;;;;;6.43;5.83;;;;;;;;;;4957908;29;20429;-80
2023/06/26 01:25:43;;;;;;;6.10;5.50;;;;;;;;;;4957495;29;20527;-80
2023/06/26 01:28:10;;;;;;;7.97;6.43;;;;;;;;;;4922782;29;20423;-80
2023/06/26 01:30:42;;;;;;;6.73;6.07;;;;;;;;;;4956432;28;20515;-80
2023/06/26 01:33:08;;;;;;;7.00;6.10;;;;;;;;;;4957798;29;20412;-80
2023/06/26 01:35:35;;;;;;;6.70;6.10;;;;;;;;;;4956010;28;20528;-80
2023/06/26 01:38:17;;;;;;;7.70;5.73;;;;;;;;;;4956637;29;20416;-80
2023/06/26 01:40:46;;;;;;;6.17;5.57;;;;;;;;;;4957636;29;20421;-80
2023/06/26 01:43:31;;;;;;;6.03;5.33;;;;;;;;;;4957476;29;20808;-80
2023/06/26 01:46:04;;;;;;;7.20;6.10;;;;;;;;;;4956569;29;20442;-80
2023/06/26 01:48:33;;;;;;;6.37;5.87;;;;;;;;;;4956278;28;20448;-80
2023/06/26 01:51:00;;;;;;;8.77;6.93;;;;;;;;;;4957446;29;20405;-80
2023/06/26 01:53:30;;;;;;;6.20;5.60;;;;;;;;;;4957185;28;20471;-80
2023/06/26 01:56:01;;;;;;;6.33;5.73;;;;;;;;;;4957365;29;20893;-80
2023/06/26 01:58:28;;;;;;;7.40;6.60;;;;;;;;;;4957373;29;20488;-80
2023/06/26 02:00:54;;;;;;;6.63;5.83;;;;;;;;;;4956195;28;20783;-80
2023/06/26 02:03:20;;;;;;;6.80;6.20;;;;;;;;;;4957163;29;20491;-83
2023/06/26 02:05:46;;;;;;;6.57;5.97;;;;;;;;;;4957396;29;20405;-80
2023/06/26 02:08:14;;;;;;;7.47;6.77;;;;;;;;;;4940069;29;20448;-80
2023/06/26 02:10:40;;;;;;;7.73;6.60;;;;;;;;;;4956063;28;20499;-80
2023/06/26 02:13:06;;;;;;;6.63;5.93;;;;;;;;;;4957086;29;20474;-80
2023/06/26 02:15:32;;;;;;;10.47;6.63;;;;;;;;;;4955856;28;20391;-80
2023/06/26 02:17:58;;;;;;;6.63;5.93;;;;;;;;;;4924080;29;20916;-80
2023/06/26 02:20:24;;;;;;;7.33;6.63;;;;;;;;;;4955585;28;20437;-80
2023/06/26 02:22:50;;;;;;;7.07;6.37;;;;;;;;;;4940152;29;20413;-80
2023/06/26 02:25:16;;;;;;;6.80;6.20;;;;;;;;;;4924198;29;21009;-80
2023/06/26 02:27:42;;;;;;;7.23;6.30;;;;;;;;;;4923866;29;20845;-80
2023/06/26 02:30:09;;;;;;;6.80;6.10;;;;;;;;;;4956980;29;20436;-79
2023/06/26 02:32:35;;;;;;;7.10;6.30;;;;;;;;;;4956547;29;20403;-80
2023/06/26 02:35:01;;;;;;;6.90;6.30;;;;;;;;;;4955433;28;20415;-80
2023/06/26 02:37:27;;;;;;;7.90;6.90;;;;;;;;;;4956449;29;20413;-80
2023/06/26 02:39:53;;;;;;;6.67;6.10;;;;;;;;;;4956496;29;20420;-80
2023/06/26 02:42:19;;;;;;;7.40;6.70;;;;;;;;;;4923760;29;20780;-80
2023/06/26 02:44:45;;;;;;;6.77;6.10;;;;;;;;;;4939075;29;20480;-80
2023/06/26 02:47:11;;;;;;;7.27;6.57;;;;;;;;;;4923758;29;20424;-80
2023/06/26 02:49:36;;;;;;;7.80;7.00;;;;;;;;;;4955192;28;20778;-80
2023/06/26 02:52:02;;;;;;;6.87;6.27;;;;;;;;;;4939751;29;20453;-80
2023/06/26 02:54:28;;;;;;;7.67;6.87;;;;;;;;;;4954523;28;20442;-81
2023/06/26 02:56:54;;;;;;;9.50;7.20;;;;;;;;;;4956421;29;20503;-80
2023/06/26 02:59:20;;;;;;;7.93;7.23;;;;;;;;;;4956164;29;20951;-80
2023/06/26 03:01:46;;;;;;;8.27;6.13;;;;;;;;;;4954978;28;20499;-80
2023/06/26 03:04:12;;;;;;;7.30;6.60;;;;;;;;;;4956137;29;20550;-80
2023/06/26 03:06:38;;;;;;;7.13;6.17;;;;;;;;;;4955901;29;20409;-80
2023/06/26 03:09:04;;;;;;;7.00;6.30;;;;;;;;;;4954600;28;20495;-81
2023/06/26 03:11:30;;;;;;;8.07;6.50;;;;;;;;;;4954616;28;20519;-80
2023/06/26 03:13:56;;;;;;;9.23;6.47;;;;;;;;;;4956128;29;20585;-80
2023/06/26 03:16:22;;;;;;;7.50;6.77;;;;;;;;;;4939173;29;20464;-82
2023/06/26 03:18:48;;;;;;;10.90;6.20;;;;;;;;;;4956422;29;20908;-81
2023/06/26 03:21:14;;;;;;;7.33;6.43;;;;;;;;;;4939094;29;20409;-81
2023/06/26 03:23:40;;;;;;;8.80;5.70;;;;;;;;;;4938790;29;20842;-80
2023/06/26 03:26:06;;;;;;;8.40;6.73;;;;;;;;;;4923040;29;20425;-79
2023/06/26 03:28:32;;;;;;;6.30;5.70;;;;;;;;;;4955920;29;20371;-81
2023/06/26 03:30:58;;;;;;;9.07;6.13;;;;;;;;;;4955982;29;20896;-79
2023/06/26 03:33:24;;;;;;;6.33;5.60;;;;;;;;;;4923403;29;20410;-79
2023/06/26 03:35:50;;;;;;;6.33;5.10;;;;;;;;;;4955070;28;20753;-79
2023/06/26 03:38:16;;;;;;;7.70;6.30;;;;;;;;;;4954691;28;20417;-80
2023/06/26 03:40:42;;;;;;;7.70;6.00;;;;;;;;;;4955944;29;20909;-79
2023/06/26 03:43:08;;;;;;;8.33;5.60;;;;;;;;;;4954872;29;20511;-80
2023/06/26 03:45:34;;;;;;;9.33;6.10;;;;;;;;;;4923225;29;20486;-79
2023/06/26 03:48:00;;;;;;;6.50;5.90;;;;;;;;;;4923196;29;20992;-79
2023/06/26 03:50:26;;;;;;;8.00;5.67;;;;;;;;;;4954454;29;20766;-83
2023/06/26 03:52:54;;;;;;;10.67;6.17;;;;;;;;;;4954319;28;20419;-79
2023/06/26 03:55:22;;;;;;;7.40;5.80;;;;;;;;;;4939332;29;20532;-79
2023/06/26 03:57:48;;;;;;;6.77;6.03;;;;;;;;;;4954616;29;20487;-79
2023/06/26 04:00:14;;;;;;;6.80;6.00;;;;;;;;;;4955510;29;20515;-79
2023/06/26 04:02:40;;;;;;;6.90;5.67;;;;;;;;;;4922454;29;20399;-79
2023/06/26 04:05:06;;;;;;;8.80;6.07;;;;;;;;;;4955393;29;20490;-79
2023/06/26 04:07:32;;;;;;;8.00;5.07;;;;;;;;;;4954033;29;20922;-79
2023/06/26 04:09:58;;;;;;;5.83;5.23;;;;;;;;;;4954778;28;20471;-78
2023/06/26 04:12:24;;;;;;;6.27;5.57;;;;;;;;;;4954934;28;20408;-78
2023/06/26 04:14:50;;;;;;;9.70;6.27;;;;;;;;;;4955240;29;20452;-79
2023/06/26 04:17:16;;;;;;;7.53;5.03;;;;;;;;;;4955758;29;20409;-78
2023/06/26 04:19:42;;;;;;;6.17;5.57;;;;;;;;;;4938354;29;20424;-78
2023/06/26 04:22:08;;;;;;;9.87;5.10;;;;;;;;;;4922882;29;20489;-78
2023/06/26 04:24:34;;;;;;;8.63;6.30;;;;;;;;;;4954576;28;20827;-78
2023/06/26 04:27:00;;;;;;;5.13;4.63;;;;;;;;;;4955115;29;20433;-78
2023/06/26 04:29:27;;;;;;;6.83;5.37;;;;;;;;;;4954414;29;20917;-78
2023/06/26 04:31:57;;;;;;;6.57;4.77;;;;;;;;;;4955371;29;20869;-78
2023/06/26 04:34:24;;;;;;;6.20;4.37;;;;;;;;;;4955633;28;20773;-77
2023/06/26 04:36:51;;;;;;;6.17;5.57;;;;;;;;;;4942010;29;20415;-78
2023/06/26 04:39:17;;;;;;;13.67;4.97;;;;;;;;;;4959523;29;20829;-77
2023/06/26 04:41:44;;;;;;;6.10;4.70;;;;;;;;;;4942467;29;20404;-77
2023/06/26 04:44:10;;;;;;;5.67;4.97;;;;;;;;;;4959528;29;20487;-77
2023/06/26 04:46:41;;;;;;;6.37;4.60;;;;;;;;;;4958895;29;20439;-78
2023/06/26 04:49:07;;;;;;;8.67;5.33;;;;;;;;;;4959607;29;20359;-77
2023/06/26 04:51:33;;;;;;;5.60;4.70;;;;;;;;;;4957978;28;20983;-78
2023/06/26 04:53:59;;;;;;;7.03;5.20;;;;;;;;;;4942161;29;20550;-77
2023/06/26 04:56:25;;;;;;;5.50;4.53;;;;;;;;;;4941969;29;20908;-77
2023/06/26 04:58:51;;;;;;;6.90;4.70;;;;;;;;;;4942199;29;20881;-76
2023/06/26 05:01:17;;;;;;;4.90;4.10;;;;;;;;;;4958977;29;20901;-78
2023/06/26 05:03:45;;;;;;;9.53;4.90;;;;;;;;;;4957898;28;20479;-78
2023/06/26 05:06:11;;;;;;;5.40;4.43;;;;;;;;;;4959158;29;20472;-78
2023/06/26 05:08:37;;;;;;;6.57;5.20;;;;;;;;;;4958882;29;20412;-78
2023/06/26 05:11:03;;;;;;;5.77;4.57;;;;;;;;;;4957552;28;20390;-78
2023/06/26 05:13:29;;;;;;;6.43;4.57;;;;;;;;;;4942154;29;20416;-77
2023/06/26 05:15:55;;;;;;;7.17;4.87;;;;;;;;;;4958881;29;20405;-77
2023/06/26 05:18:21;;;;;;;6.10;4.40;;;;;;;;;;4958711;29;20908;-77
2023/06/26 05:20:47;;;;;;;6.00;4.20;;;;;;;;;;4941545;29;20401;-78
2023/06/26 05:23:13;;;;;;;7.23;4.63;;;;;;;;;;4957210;28;20420;-77
2023/06/26 05:25:39;;;;;;;5.70;4.50;;;;;;;;;;4958848;29;20466;-78
2023/06/26 05:28:05;;;;;;;8.47;5.17;;;;;;;;;;4926042;29;20417;-77
2023/06/26 05:30:34;;;;;;;5.23;4.00;;;;;;;;;;4958940;29;20474;-77
2023/06/26 05:33:00;;;;;;;5.60;4.60;;;;;;;;;;4958673;29;20408;-78
2023/06/26 05:35:28;;;;;;;9.03;4.50;;;;;;;;;;4958516;29;20408;-78
2023/06/26 05:37:55;;;;;;;7.80;4.20;;;;;;;;;;4958498;29;20449;-78
2023/06/26 05:40:21;;;;;;;4.70;3.90;;;;;;;;;;4958488;29;20500;-77
2023/06/26 05:42:48;;;;;;;7.63;5.00;;;;;;;;;;4925323;29;20756;-78
2023/06/26 05:45:14;;;;;;;9.80;5.13;;;;;;;;;;4958017;28;20464;-77
2023/06/26 05:47:40;;;;;;;7.80;4.90;;;;;;;;;;4957713;29;20415;-78
2023/06/26 05:50:06;;;;;;;8.77;4.20;;;;;;;;;;4941454;29;20442;-77
2023/06/26 05:52:32;;;;;;;9.37;4.00;;;;;;;;;;4958452;29;20500;-77
2023/06/26 05:54:59;;;;;;;7.43;4.20;;;;;;;;;;4958456;28;20527;-78
2023/06/26 05:57:27;;;;;;;8.07;4.67;;;;;;;;;;4957802;29;20428;-77
2023/06/26 05:59:53;;;;;;;8.03;3.70;;;;;;;;;;4957859;29;20500;-77
2023/06/26 06:02:19;;;;;;;7.60;4.23;;;;;;;;;;4956569;28;20417;-80
2023/06/26 06:04:45;;;;;;;8.30;4.70;;;;;;;;;;4958306;29;20476;-78
2023/06/26 06:07:11;;;;;;;9.00;5.13;;;;;;;;;;4956913;28;20399;-78
2023/06/26 06:09:37;;;;;;;6.60;4.57;;;;;;;;;;4956585;28;20416;-78
2023/06/26 06:12:04;;;;;;;5.77;4.30;;;;;;;;;;4957951;29;20857;-78
2023/06/26 06:14:30;;;;;;;6.00;4.47;;;;;;;;;;4957797;29;20421;-77
2023/06/26 06:16:59;;;;;;;6.20;4.50;;;;;;;;;;4957799;29;20411;-77
2023/06/26 06:19:25;;;;;;;8.03;4.20;;;;;;;;;;4925414;29;20899;-77
2023/06/26 06:21:51;;;;;;;7.50;4.43;;;;;;;;;;4940489;29;20411;-78
2023/06/26 06:24:17;;;;;;;5.30;4.63;;;;;;;;;;4940678;29;20446;-78
2023/06/26 06:26:43;;;;;;;9.63;5.00;;;;;;;;;;4957457;29;20746;-78
2023/06/26 06:29:08;;;;;;;4.47;3.87;;;;;;;;;;4940740;29;20432;-78
2023/06/26 06:31:34;;;;;;;6.47;4.43;;;;;;;;;;4956702;29;20852;-78
2023/06/26 06:34:00;;;;;;;7.20;4.30;;;;;;;;;;4956280;28;20510;-78
2023/06/26 06:36:26;;;;;;;5.57;3.87;;;;;;;;;;4956550;29;20460;-77
2023/06/26 06:38:52;;;;;;;6.17;4.93;;;;;;;;;;4957051;29;20500;-77
2023/06/26 06:41:20;;;;;;;8.70;4.90;;;;;;;;;;4957151;29;20413;-77
2023/06/26 06:43:46;;;;;;;10.17;4.17;;;;;;;;;;4956064;29;20472;-80
2023/06/26 06:46:11;;;;;;;6.33;4.07;;;;;;;;;;4955955;28;20760;-77
2023/06/26 06:48:37;;;;;;;6.23;4.80;;;;;;;;;;4957166;29;20499;-80
2023/06/26 06:51:03;;;;;;;7.53;5.03;;;;;;;;;;4957380;29;20415;-78
2023/06/26 06:53:30;;;;;;;7.47;4.73;;;;;;;;;;4952591;28;20845;-77
2023/06/26 06:55:56;;;;;;;6.43;5.03;;;;;;;;;;4937493;29;20417;-78
2023/06/26 06:58:25;;;;;;;7.03;4.90;;;;;;;;;;4936293;29;20392;-78
2023/06/26 07:00:51;;;;;;;10.87;4.00;;;;;;;;;;4937499;29;20414;-78
2023/06/26 07:03:17;;;;;;;9.47;5.03;;;;;;;;;;4937879;29;20525;-77
2023/06/26 07:05:44;;;;;;;10.27;5.87;;;;;;;;;;4937971;29;20392;-80
2023/06/26 07:08:10;;;;;;;8.27;4.73;;;;;;;;;;4936308;29;20424;-77
2023/06/26 07:10:36;;;;;;;11.00;5.17;;;;;;;;;;4920842;29;20396;-79
2023/06/26 07:13:02;;;;;;;8.63;4.70;;;;;;;;;;4937379;29;20808;-77
2023/06/26 07:15:28;;;;;;;9.10;5.20;;;;;;;;;;4921088;29;20425;-77
2023/06/26 07:17:54;;;;;;;8.03;5.00;;;;;;;;;;4936197;29;20504;-79
2023/06/26 07:20:20;;;;;;;9.93;4.93;;;;;;;;;;4936516;29;20445;-77
2023/06/26 07:22:47;;;;;;;9.40;5.97;;;;;;;;;;4937588;29;20916;-76
2023/06/26 07:25:13;;;;;;;8.83;5.20;;;;;;;;;;4937557;29;20469;-79
2023/06/26 07:27:39;;;;;;;13.30;6.10;;;;;;;;;;4937456;29;20410;-81
2023/06/26 07:30:05;;;;;;;7.80;4.77;;;;;;;;;;4937506;29;20480;-79
2023/06/26 07:32:31;;;;;;;12.10;5.50;;;;;;;;;;4937270;29;20886;-79
2023/06/26 07:34:57;;;;;;;12.70;5.70;;;;;;;;;;4937548;29;20541;-80
2023/06/26 07:37:23;;;;;;;8.40;4.70;;;;;;;;;;4937380;29;20500;-79
2023/06/26 07:39:50;;;;;;;10.97;5.20;;;;;;;;;;4936112;29;20414;-79
2023/06/26 07:42:16;;;;;;;11.43;5.80;;;;;;;;;;4935586;29;20414;-78
2023/06/26 07:44:43;;;;;;;12.80;5.30;;;;;;;;;;4937018;29;20465;-79
2023/06/26 07:47:09;;;;;;;9.20;5.33;;;;;;;;;;4936098;29;20785;-79
2023/06/26 07:49:35;;;;;;;7.13;4.77;;;;;;;;;;4937159;29;20414;-79
2023/06/26 07:52:01;;;;;;;9.60;5.20;;;;;;;;;;4935746;29;20421;-79
2023/06/26 07:54:27;;;;;;;11.33;5.00;;;;;;;;;;4936002;29;20509;-79
2023/06/26 07:56:57;;;;;;;8.53;4.67;;;;;;;;;;4935384;29;20426;-79
2023/06/26 07:59:23;;;;;;;10.70;5.40;;;;;;;;;;4937051;29;20418;-78
2023/06/26 08:01:51;;;;;;;11.90;4.77;;;;;;;;;;4936999;29;20413;-79
2023/06/26 08:04:18;;;;;;;10.73;4.67;;;;;;;;;;4936882;29;20528;-78
2023/06/26 08:06:43;;;;;;;13.13;4.70;;;;;;;;;;4936903;29;20436;-77
2023/06/26 08:09:10;;;;;;;8.77;4.87;;;;;;;;;;4935490;29;20410;-78
2023/06/26 08:11:36;;;;;;;10.70;5.23;;;;;;;;;;4936317;29;20422;-76
2023/06/26 08:14:02;;;;;;;9.20;5.00;;;;;;;;;;4937172;29;20433;-77
2023/06/26 08:16:28;;;;;;;11.10;4.73;;;;;;;;;;4937007;29;20413;-76
2023/06/26 08:18:53;;;;;;;12.43;5.10;;;;;;;;;;4919612;29;20433;-77
2023/06/26 08:21:19;;;;;;;9.87;5.07;;;;;;;;;;4936782;29;20412;-76
2023/06/26 08:23:45;;;;;;;14.60;4.67;;;;;;;;;;4936445;29;20461;-78
2023/06/26 08:26:11;;;;;;;10.57;4.33;;;;;;;;;;4935965;29;20765;-77
2023/06/26 08:28:37;;;;;;;9.30;4.27;;;;;;;;;;4935916;29;20421;-76
2023/06/26 08:31:03;;;;;;;13.90;5.30;;;;;;;;;;4935581;29;20413;-76
2023/06/26 08:33:29;;;;;;;11.77;4.40;;;;;;;;;;4937006;29;20460;-76
2023/06/26 08:35:55;;;;;;;10.57;4.47;;;;;;;;;;4936652;29;20890;-76
2023/06/26 08:38:21;;;;;;;6.50;3.90;;;;;;;;;;4936644;29;20406;-78
2023/06/26 08:40:48;;;;;;;11.67;4.50;;;;;;;;;;4936005;29;20756;-78
2023/06/26 08:43:14;;;;;;;9.70;4.30;;;;;;;;;;4936792;29;20413;-76
2023/06/26 08:45:40;;;;;;;7.17;4.20;;;;;;;;;;4935471;29;20425;-78
2023/06/26 08:48:08;;;;;;;8.33;4.03;;;;;;;;;;4935062;29;20455;-79
2023/06/26 08:50:34;;;;;;;10.33;4.50;;;;;;;;;;4937055;29;20401;-78
2023/06/26 08:53:23;;;;;;;10.13;3.80;;;;;;;;;;4937396;28;20805;-78
2023/06/26 08:55:53;;;;;;;13.30;4.30;;;;;;;;;;4954405;28;20932;-79
2023/06/26 08:58:19;;;;;;;10.83;3.93;;;;;;;;;;4954836;29;20504;-78
2023/06/26 09:00:45;;;;;;;8.53;4.47;;;;;;;;;;4954041;28;20412;-81
2023/06/26 09:03:11;;;;;;;8.60;3.93;;;;;;;;;;4955873;29;20519;-76
2023/06/26 09:05:37;;;;;;;9.87;3.70;;;;;;;;;;4954105;28;20564;-76
2023/06/26 09:08:03;;;;;;;10.77;3.97;;;;;;;;;;4955735;29;20401;-76
2023/06/26 09:10:29;;;;;;;7.47;3.87;;;;;;;;;;4954668;29;20416;-76
2023/06/26 09:12:58;;;;;;;9.10;4.20;;;;;;;;;;4954541;28;20474;-76
2023/06/26 09:15:24;;;;;;;7.03;3.63;;;;;;;;;;4955854;29;20439;-76
2023/06/26 09:17:50;;;;;;;9.10;4.37;;;;;;;;;;4955759;29;20416;-77
2023/06/26 09:20:16;;;;;;;13.83;4.17;;;;;;;;;;4955687;28;20428;-78
2023/06/26 09:22:43;;;;;;;15.13;4.30;;;;;;;;;;4959419;29;20412;-78
2023/06/26 09:25:10;;;;;;;5.77;3.40;;;;;;;;;;4958890;29;20933;-77
2023/06/26 09:27:36;;;;;;;10.07;3.00;;;;;;;;;;4959052;29;20405;-76
2023/06/26 09:30:03;;;;;;;4.07;3.23;;;;;;;;;;4958969;29;20409;-76
2023/06/26 09:32:30;;;;;;;7.40;3.63;;;;;;;;;;4958727;29;20413;-76
2023/06/26 09:34:56;;;;;;;9.10;3.80;;;;;;;;;;4958877;29;20435;-76
2023/06/26 09:37:25;;;;;;;8.17;3.67;;;;;;;;;;4957796;28;20417;-76
2023/06/26 09:39:52;;;;;;;5.60;3.43;;;;;;;;;;4958169;29;20440;-77
2023/06/26 09:42:18;;;;;;;9.27;4.23;;;;;;;;;;4957905;29;20845;-76
2023/06/26 09:44:45;;;;;;;9.67;3.57;;;;;;;;;;4958405;29;20853;-78
2023/06/26 09:47:11;;;;;;;6.80;3.40;;;;;;;;;;4956977;29;20816;-77
2023/06/26 09:49:37;;;;;;;5.47;3.43;;;;;;;;;;4941285;29;20408;-79
2023/06/26 09:52:03;;;;;;;8.70;4.13;;;;;;;;;;4958142;29;20460;-78
2023/06/26 09:54:30;;;;;;;8.83;4.00;;;;;;;;;;4958134;29;20472;-79
2023/06/26 09:56:57;;;;;;;4.40;2.70;;;;;;;;;;4941513;29;20851;-79
2023/06/26 09:59:23;;;;;;;7.40;3.27;;;;;;;;;;4924999;29;20416;-80
2023/06/26 10:01:59;;;;;;;12.33;3.13;;;;;;;;;;4924735;29;20455;-79
2023/06/26 10:04:24;;;;;;;11.33;4.00;;;;;;;;;;4957886;29;20852;-78
2023/06/26 10:06:52;;;;;;;6.03;2.60;;;;;;;;;;4924939;29;20419;-79
2023/06/26 10:09:19;;;;;;;7.03;3.27;;;;;;;;;;4957942;29;20404;-78
2023/06/26 10:11:59;;;;;;;5.67;3.50;;;;;;;;;;4957947;29;20428;-78
2023/06/26 10:14:32;;;;;;;4.53;2.97;;;;;;;;;;4957942;29;20428;-78
2023/06/26 10:16:58;;;;;;;7.47;3.80;;;;;;;;;;4958020;29;20460;-78
2023/06/26 10:19:26;;;;;;;4.80;2.40;;;;;;;;;;4925005;29;20777;-78
2023/06/26 10:21:55;;;;;;;7.20;3.03;;;;;;;;;;4956310;29;20928;-79
2023/06/26 10:24:22;;;;;;;7.83;2.90;;;;;;;;;;4940335;29;20468;-79
2023/06/26 10:26:50;;;;;;;11.23;3.37;;;;;;;;;;4956455;28;20428;-78
2023/06/26 10:29:18;;;;;;;10.37;3.60;;;;;;;;;;4956400;28;20487;-79
2023/06/26 10:31:46;;;;;;;4.97;2.70;;;;;;;;;;4955975;28;20836;-78
2023/06/26 10:34:12;;;;;;;8.17;3.20;;;;;;;;;;4957439;29;20460;-78
2023/06/26 10:36:39;;;;;;;5.60;3.10;;;;;;;;;;4957303;29;20407;-83
2023/06/26 10:39:05;;;;;;;6.20;3.20;;;;;;;;;;4956977;29;20419;-82
2023/06/26 10:41:37;;;;;;;5.10;2.40;;;;;;;;;;4957319;29;20455;-81
2023/06/26 10:44:03;;;;;;;6.20;2.90;;;;;;;;;;4957140;29;20460;-82
2023/06/26 10:46:34;;;;;;;7.60;2.47;;;;;;;;;;4957059;29;21004;-83
2023/06/26 10:49:00;;;;;;;8.07;2.90;;;;;;;;;;4955730;29;20491;-77
2023/06/26 10:51:27;;;;;;;6.80;2.47;;;;;;;;;;4957030;29;20456;-78
2023/06/26 10:53:57;;;;;;;7.07;2.70;;;;;;;;;;4939795;29;20476;-78
2023/06/26 10:56:41;;;;;;;8.53;3.00;;;;;;;;;;4957403;29;20425;-78
2023/06/26 10:59:21;;;;;;;6.43;2.43;;;;;;;;;;4957145;29;20840;-78
2023/06/26 11:01:54;;;;;;;5.87;2.80;;;;;;;;;;4955724;29;20471;-79
2023/06/26 11:04:36;;;;;;;4.53;2.10;;;;;;;;;;4957254;29;20459;-78
2023/06/26 11:07:19;;;;;;;10.43;2.67;;;;;;;;;;4957083;29;20432;-78
2023/06/26 11:09:55;;;;;;;6.73;2.57;;;;;;;;;;4955660;29;20786;-78
2023/06/26 11:12:43;;;;;;;8.90;2.40;;;;;;;;;;4956811;29;20475;-78
2023/06/26 11:15:13;;;;;;;5.03;2.73;;;;;;;;;;4956629;29;20473;-78
2023/06/26 11:17:39;;;;;;;7.13;2.50;;;;;;;;;;4956606;29;20409;-79
2023/06/26 11:20:07;;;;;;;4.93;2.63;;;;;;;;;;4956040;29;20485;-78
2023/06/26 11:22:35;;;;;;;6.30;2.50;;;;;;;;;;4939567;29;20416;-78
2023/06/26 11:25:02;;;;;;;3.30;2.37;;;;;;;;;;4956111;29;20491;-78
2023/06/26 11:27:44;;;;;;;9.13;2.27;;;;;;;;;;4956317;29;20429;-78
2023/06/26 11:30:12;;;;;;;9.53;2.70;;;;;;;;;;4956004;29;20509;-88
2023/06/26 11:32:38;;;;;;;6.13;2.27;;;;;;;;;;4953590;29;20408;-88
2023/06/26 11:35:04;;;;;;;5.77;2.30;;;;;;;;;;4952635;28;20421;-89
2023/06/26 11:37:31;;;;;;;4.40;2.43;;;;;;;;;;4955725;29;20408;-88
2023/06/26 11:39:57;;;;;;;4.67;2.10;;;;;;;;;;4937610;29;20432;-91
2023/06/26 11:42:27;;;;;;;6.17;2.03;;;;;;;;;;4954516;28;20471;-88
2023/06/26 11:44:54;;;;;;;6.50;2.30;;;;;;;;;;4954638;28;20455;-87
2023/06/26 11:47:22;;;;;;;4.30;2.20;;;;;;;;;;4937809;29;20421;-87
2023/06/26 11:49:49;;;;;;;4.70;2.00;;;;;;;;;;4955338;29;20401;-88
2023/06/26 11:52:16;;;;;;;4.60;2.23;;;;;;;;;;4954840;29;20507;-85
2023/06/26 11:54:42;;;;;;;2.73;1.90;;;;;;;;;;4953085;29;20459;-88
2023/06/26 11:57:08;;;;;;;4.80;2.50;;;;;;;;;;4955346;29;20886;-89
2023/06/26 11:59:36;;;;;;;5.60;1.87;;;;;;;;;;4953942;28;20464;-88
2023/06/26 12:02:05;;;;;;;7.13;2.57;;;;;;;;;;4953095;29;20425;-90
2023/06/26 12:04:31;;;;;;;4.47;2.20;;;;;;;;;;4953853;29;20464;-88
2023/06/26 12:06:58;;;;;;;5.13;1.57;;;;;;;;;;4953609;28;20523;-87
2023/06/26 12:09:24;;;;;;;4.70;1.80;;;;;;;;;;4954180;29;20825;-87
2023/06/26 12:11:53;;;;;;;3.90;1.80;;;;;;;;;;4954247;29;20913;-88
2023/06/26 12:14:20;;;;;;;6.80;2.50;;;;;;;;;;4953635;28;20435;-87
2023/06/26 12:16:47;;;;;;;2.83;2.07;;;;;;;;;;4954878;29;20405;-87
2023/06/26 12:19:13;;;;;;;5.83;2.03;;;;;;;;;;4954448;29;20412;-88
2023/06/26 12:21:44;;;;;;;3.73;2.17;;;;;;;;;;4955215;29;20836;-87
2023/06/26 12:24:13;;;;;;;4.60;2.23;;;;;;;;;;4953836;29;20475;-87
2023/06/26 12:26:43;;;;;;;2.67;1.83;;;;;;;;;;4955330;29;20444;-88
2023/06/26 12:29:13;;;;;;;7.00;2.17;;;;;;;;;;4955288;29;20732;-87
2023/06/26 12:31:43;;;;;;;6.80;2.30;;;;;;;;;;4954233;29;20452;-87
2023/06/26 12:34:16;;;;;;;3.57;1.90;;;;;;;;;;4954476;29;20432;-86
2023/06/26 12:36:43;;;;;;;3.07;1.70;;;;;;;;;;4953899;29;20444;-88
2023/06/26 12:39:12;;;;;;;9.83;2.40;;;;;;;;;;4953079;28;20409;-87
2023/06/26 12:42:05;;;;;;;11.30;2.00;;;;;;;;;;4955222;29;20500;-86
2023/06/26 12:44:32;;;;;;;8.27;1.67;;;;;;;;;;4953552;29;20479;-88
2023/06/26 12:47:02;;;;;;;4.00;1.60;;;;;;;;;;4953278;29;20924;-85
2023/06/26 12:49:35;;;;;;;6.93;1.53;;;;;;;;;;4953540;29;20434;-85
2023/06/26 12:52:03;;;;;;;3.80;1.50;;;;;;;;;;4953454;29;20428;-86
2023/06/26 12:54:29;;;;;;;4.97;1.50;;;;;;;;;;4949418;28;20476;-85
2023/06/26 12:56:55;;;;;;;4.20;1.63;;;;;;;;;;4937956;29;20469;-85
2023/06/26 12:59:21;;;;;;;5.13;1.43;;;;;;;;;;4938976;29;20882;-86
2023/06/26 13:01:48;;;;;;;5.87;1.87;;;;;;;;;;4937186;29;20457;-86
2023/06/26 13:04:14;;;;;;;2.23;1.10;;;;;;;;;;4938880;29;20467;-84
2023/06/26 13:06:40;;;;;;;4.00;1.70;;;;;;;;;;4937395;29;20448;-84
2023/06/26 13:09:06;;;;;;;2.33;1.27;;;;;;;;;;4936060;29;20511;-82
2023/06/26 13:11:32;;;;;;;5.10;1.53;;;;;;;;;;4939046;29;20808;-82
2023/06/26 13:13:59;;;;;;;4.37;1.43;;;;;;;;;;4923555;29;20444;-82
2023/06/26 13:16:25;;;;;;;6.00;1.40;;;;;;;;;;4919278;29;20413;-85
2023/06/26 13:18:51;;;;;;;7.60;1.40;;;;;;;;;;4923462;29;20422;-83
2023/06/26 13:21:17;;;;;;;2.43;1.30;;;;;;;;;;4944483;29;20425;-88
2023/06/26 13:23:44;;;;;;;4.03;1.77;;;;;;;;;;4923434;29;20469;-82
2023/06/26 13:26:10;;;;;;;3.40;1.73;;;;;;;;;;4932530;29;20422;-82
2023/06/26 13:28:36;;;;;;;4.27;1.30;;;;;;;;;;4938108;29;20774;-84
2023/06/26 13:31:03;;;;;;;6.33;1.53;;;;;;;;;;4953667;29;20425;-83
2023/06/26 13:33:29;;;;;;;4.03;1.80;;;;;;;;;;4937656;29;20817;-82
2023/06/26 13:35:55;;;;;;;1.63;1.20;;;;;;;;;;4953443;29;20914;-82
2023/06/26 13:38:24;;;;;;;2.80;1.67;;;;;;;;;;4940223;29;20509;-83
2023/06/26 13:40:54;;;;;;;2.53;1.10;;;;;;;;;;4920833;29;20553;-82
2023/06/26 13:43:21;;;;;;;3.40;1.70;;;;;;;;;;4920753;29;20413;-82
2023/06/26 13:45:48;;;;;;;2.00;1.40;;;;;;;;;;4920960;29;20485;-83
2023/06/26 13:48:14;;;;;;;6.70;1.80;;;;;;;;;;4920233;29;20462;-83
2023/06/26 13:50:40;;;;;;;2.40;1.33;;;;;;;;;;4903105;29;20430;-84
2023/06/26 13:53:06;;;;;;;2.00;1.37;;;;;;;;;;4921944;29;20410;-84
2023/06/26 13:55:32;;;;;;;1.50;1.13;;;;;;;;;;4921903;29;20429;-83
2023/06/26 13:57:58;;;;;;;1.67;1.00;;;;;;;;;;4921591;29;20421;-84
2023/06/26 14:00:25;;;;;;;2.43;1.10;;;;;;;;;;4938699;29;20409;-83
2023/06/26 14:02:51;;;;;;;7.07;1.90;;;;;;;;;;4952177;28;20416;-83
2023/06/26 14:05:18;;;;;;;2.80;1.60;;;;;;;;;;4976878;28;20507;-83
2023/06/26 14:07:44;;;;;;;3.70;1.53;;;;;;;;;;4942905;28;20940;-85
2023/06/26 14:10:10;;;;;;;4.30;1.60;;;;;;;;;;4976664;28;20408;-84
2023/06/26 14:12:36;;;;;;;2.70;1.37;;;;;;;;;;4975547;28;20431;-83
2023/06/26 14:15:03;;;;;;;3.27;1.50;;;;;;;;;;4959680;28;20762;-84
2023/06/26 14:17:29;;;;;;;3.30;1.47;;;;;;;;;;4975617;28;21067;-84
2023/06/26 14:19:55;;;;;;;9.47;2.07;;;;;;;;;;4965385;28;20508;-83
2023/06/26 14:22:21;;;;;;;3.80;1.80;;;;;;;;;;4923727;29;20456;-84
2023/06/26 14:24:48;;;;;;;3.23;1.40;;;;;;;;;;4955980;29;20469;-83
2023/06/26 14:27:14;;;;;;;2.67;1.50;;;;;;;;;;4957306;29;20507;-83
2023/06/26 14:29:40;;;;;;;1.57;1.23;;;;;;;;;;4924309;29;20425;-84
2023/06/26 14:32:07;;;;;;;2.67;1.73;;;;;;;;;;4923636;29;20427;-83
2023/06/26 14:34:33;;;;;;;4.40;2.27;;;;;;;;;;4956454;29;20428;-84
2023/06/26 14:36:59;;;;;;;3.83;1.50;;;;;;;;;;4952281;29;20424;-83
2023/06/26 14:39:25;;;;;;;2.50;1.60;;;;;;;;;;4938520;29;20903;-86
2023/06/26 14:41:51;;;;;;;2.97;1.70;;;;;;;;;;4955090;28;20416;-84